createdAt,value
2022-09-26T00:00:46.620Z,4.50
2022-09-26T00:04:58.463Z,4.13
2022-09-26T00:09:10.126Z,4.60
2022-09-26T00:13:21.681Z,4.68
2022-09-26T00:17:33.250Z,4.60
2022-09-26T00:21:44.852Z,4.03
2022-09-26T00:25:57.587Z,4.40
2022-09-26T00:30:09.750Z,4.03
2022-09-26T00:34:21.419Z,4.03
2022-09-26T00:38:34.189Z,4.35
2022-09-26T00:42:45.793Z,3.88
2022-09-26T00:46:57.644Z,4.07
2022-09-26T00:51:10.642Z,3.95
2022-09-26T00:55:28.942Z,4.07
2022-09-26T00:59:49.381Z,3.53
2022-09-26T01:04:03.054Z,3.88
2022-09-26T01:08:18.060Z,3.58
2022-09-26T01:12:31.863Z,3.58
2022-09-26T01:16:51.535Z,3.92
2022-09-26T01:21:14.697Z,3.60
2022-09-26T01:26:00.128Z,3.60
2022-09-26T01:30:21.422Z,3.65
2022-09-26T01:34:50.769Z,3.78
2022-09-26T01:39:36.460Z,3.75
2022-09-26T01:44:16.228Z,4.05
2022-09-26T01:48:32.062Z,4.13
2022-09-26T01:52:53.536Z,4.47
2022-09-26T01:57:10.938Z,3.92
2022-09-26T02:01:26.788Z,4.13
2022-09-26T02:05:46.688Z,4.10
2022-09-26T02:10:03.572Z,4.20
2022-09-26T02:14:19.945Z,3.80
2022-09-26T02:18:43.853Z,4.00
2022-09-26T02:22:57.683Z,3.88
2022-09-26T02:27:09.423Z,3.83
2022-09-26T02:31:24.680Z,3.63
2022-09-26T02:35:55.238Z,4.43
2022-09-26T02:40:08.202Z,3.75
2022-09-26T02:44:25.913Z,3.80
2022-09-26T02:48:50.557Z,3.50
2022-09-26T02:53:25.221Z,3.20
2022-09-26T02:57:51.186Z,3.67
2022-09-26T03:02:15.838Z,3.17
2022-09-26T03:06:39.809Z,3.50
2022-09-26T03:10:54.250Z,3.25
2022-09-26T03:15:07.530Z,3.20
2022-09-26T03:19:48.269Z,3.50
2022-09-26T03:23:59.941Z,3.65
2022-09-26T03:28:12.240Z,3.65
2022-09-26T03:32:24.415Z,3.37
2022-09-26T03:36:35.897Z,3.85
2022-09-26T03:40:48.333Z,3.38
2022-09-26T03:45:29.474Z,3.47
2022-09-26T03:49:48.917Z,3.55
2022-09-26T03:54:00.559Z,3.67
2022-09-26T03:58:13.400Z,3.73
2022-09-26T04:02:25.503Z,3.33
2022-09-26T04:06:52.406Z,3.27
2022-09-26T04:11:10.020Z,3.03
2022-09-26T04:15:21.749Z,3.30
2022-09-26T04:19:36.802Z,3.17
2022-09-26T04:23:49.447Z,3.27
2022-09-26T04:28:02.530Z,3.07
2022-09-26T04:32:14.140Z,2.75
2022-09-26T04:36:51.261Z,2.63
2022-09-26T04:41:13.764Z,2.60
2022-09-26T04:45:25.460Z,2.63
2022-09-26T04:49:37.942Z,2.83
2022-09-26T04:53:50.439Z,2.70
2022-09-26T04:58:05.545Z,2.40
2022-09-26T05:02:17.205Z,2.73
2022-09-26T05:06:28.972Z,2.37
2022-09-26T05:10:41.656Z,2.23
2022-09-26T05:14:53.976Z,2.40
2022-09-26T05:19:05.626Z,2.40
2022-09-26T05:23:45.069Z,2.30
2022-09-26T05:27:58.010Z,2.30
2022-09-26T05:32:10.515Z,2.53
2022-09-26T05:36:24.855Z,2.53
2022-09-26T05:40:55.341Z,2.30
2022-09-26T05:45:08.739Z,2.60
2022-09-26T05:49:20.326Z,2.70
2022-09-26T05:53:32.663Z,2.40
2022-09-26T05:57:55.593Z,2.67
2022-09-26T06:02:11.329Z,3.00
2022-09-26T06:06:49.138Z,2.80
2022-09-26T06:11:13.855Z,2.37
2022-09-26T06:15:25.297Z,2.90
2022-09-26T06:19:36.799Z,2.60
2022-09-26T06:23:48.338Z,2.67
2022-09-26T06:28:01.419Z,2.80
2022-09-26T06:32:14.738Z,2.67
2022-09-26T06:36:55.449Z,2.70
2022-09-26T06:41:07.415Z,2.70
2022-09-26T06:45:18.984Z,2.60
2022-09-26T06:49:53.055Z,2.63
2022-09-26T06:54:17.555Z,2.63
2022-09-26T06:58:29.368Z,2.75
2022-09-26T07:02:52.750Z,2.90
2022-09-26T07:07:11.531Z,3.17
2022-09-26T07:11:56.615Z,2.40
2022-09-26T07:15:58.395Z,2.67
2022-09-26T07:20:40.134Z,2.70
2022-09-26T07:25:13.106Z,2.70
2022-09-26T07:29:25.007Z,2.90
2022-09-26T07:33:39.407Z,2.65
2022-09-26T07:37:55.434Z,2.90
2022-09-26T07:42:07.228Z,3.00
2022-09-26T07:46:37.771Z,2.80
2022-09-26T07:51:00.023Z,2.80
2022-09-26T07:55:33.275Z,2.85
2022-09-26T07:59:45.752Z,2.60
2022-09-26T08:04:25.916Z,2.80
2022-09-26T08:08:38.086Z,2.20
2022-09-26T08:13:08.043Z,2.67
2022-09-26T08:17:36.971Z,2.83
2022-09-26T08:21:49.145Z,2.63
2022-09-26T08:26:04.114Z,2.53
2022-09-26T08:30:31.217Z,2.30
2022-09-26T08:34:46.486Z,2.67
2022-09-26T08:39:24.160Z,2.58
2022-09-26T08:44:05.855Z,2.35
2022-09-26T08:48:30.886Z,2.35
2022-09-26T08:53:08.720Z,2.58
2022-09-26T08:57:54.123Z,2.80
2022-09-26T09:02:18.415Z,2.17
2022-09-26T09:06:38.940Z,2.50
2022-09-26T09:10:50.415Z,2.63
2022-09-26T09:15:59.325Z,2.92
2022-09-26T09:20:49.799Z,2.15
2022-09-26T09:25:30.931Z,2.67
2022-09-26T09:29:56.542Z,2.67
2022-09-26T09:34:32.633Z,2.90
2022-09-26T09:39:06.561Z,2.50
2022-09-26T09:43:48.568Z,3.10
2022-09-26T09:48:00.487Z,3.08
2022-09-26T09:52:30.871Z,2.92
2022-09-26T09:56:42.395Z,3.03
2022-09-26T10:01:11.156Z,2.92
2022-09-26T10:05:42.519Z,3.35
2022-09-26T10:09:56.983Z,2.65
2022-09-26T10:14:33.980Z,3.08
2022-09-26T10:19:04.076Z,2.70
2022-09-26T10:23:26.408Z,3.10
2022-09-26T10:27:48.055Z,3.05
2022-09-26T10:32:01.059Z,2.55
2022-09-26T10:36:27.884Z,2.75
2022-09-26T10:40:53.097Z,3.20
2022-09-26T10:45:15.776Z,3.10
2022-09-26T10:49:51.290Z,3.40
2022-09-26T10:54:34.349Z,3.10
2022-09-26T10:58:47.018Z,3.25
2022-09-26T11:03:00.286Z,3.15
2022-09-26T11:07:26.561Z,3.42
2022-09-26T11:11:53.336Z,3.28
2022-09-26T11:16:13.508Z,3.50
2022-09-26T11:21:00.270Z,3.55
2022-09-26T11:25:21.275Z,3.05
2022-09-26T11:29:46.673Z,3.03
2022-09-26T11:34:04.723Z,3.23
2022-09-26T11:38:46.344Z,2.83
2022-09-26T11:43:25.882Z,2.80
2022-09-26T11:48:02.603Z,2.90
2022-09-26T11:52:50.194Z,2.95
2022-09-26T11:57:08.534Z,2.67
2022-09-26T12:01:27.321Z,2.33
2022-09-26T12:06:02.501Z,2.80
2022-09-26T12:10:41.710Z,2.40
2022-09-26T12:15:20.120Z,2.47
2022-09-26T12:19:41.813Z,2.92
2022-09-26T12:23:58.726Z,2.83
2022-09-26T12:28:48.550Z,2.25
2022-09-26T12:33:14.680Z,2.38
2022-09-26T12:37:26.199Z,2.10
2022-09-26T12:42:02.850Z,2.40
2022-09-26T12:46:35.552Z,2.13
2022-09-26T12:51:29.921Z,2.22
2022-09-26T12:55:53.665Z,2.30
2022-09-26T13:00:22.892Z,2.35
2022-09-26T13:05:16.285Z,1.92
2022-09-26T13:09:58.081Z,2.00
2022-09-26T13:14:31.454Z,1.80
2022-09-26T13:18:51.647Z,1.77
2022-09-26T13:23:16.310Z,1.90
2022-09-26T13:27:36.141Z,1.55
2022-09-26T13:31:55.181Z,1.80
2022-09-26T13:36:09.337Z,1.88
2022-09-26T13:40:36.530Z,1.65
2022-09-26T13:45:34.561Z,1.60
2022-09-26T13:50:05.085Z,1.63
2022-09-26T13:54:51.864Z,1.75
2022-09-26T13:59:12.362Z,1.33
2022-09-26T14:03:24.005Z,1.42
2022-09-26T14:08:04.889Z,1.35
2022-09-26T14:12:33.384Z,1.63
2022-09-26T14:16:52.342Z,1.90
2022-09-26T14:21:09.887Z,1.80
2022-09-26T14:25:46.166Z,1.48
2022-09-26T14:30:23.115Z,1.25
2022-09-26T14:34:35.459Z,1.42
2022-09-26T14:38:49.558Z,1.40
2022-09-26T14:43:17.177Z,1.20
2022-09-26T14:47:38.630Z,1.52
2022-09-26T14:51:56.551Z,1.60
2022-09-26T14:56:10.477Z,1.42
2022-09-26T15:00:40.562Z,1.40
2022-09-26T15:05:12.542Z,1.60
2022-09-26T15:09:33.020Z,1.20
2022-09-26T15:13:46.132Z,1.58
2022-09-26T15:18:14.730Z,1.38
2022-09-26T15:22:29.779Z,1.50
2022-09-26T15:26:43.005Z,1.60
2022-09-26T15:31:21.437Z,1.60
2022-09-26T15:35:33.910Z,1.58
2022-09-26T15:39:45.516Z,2.42
2022-09-26T15:44:01.033Z,2.50
2022-09-26T15:48:24.665Z,2.00
2022-09-26T15:52:41.260Z,3.17
2022-09-26T15:56:55.376Z,4.45
2022-09-26T16:01:15.656Z,3.22
2022-09-26T16:05:27.979Z,2.72
2022-09-26T16:09:43.178Z,3.28
2022-09-26T16:13:56.667Z,2.58
2022-09-26T16:18:25.255Z,2.30
2022-09-26T16:22:36.839Z,4.18
2022-09-26T16:26:50.188Z,3.53
2022-09-26T16:31:14.308Z,28.65
2022-09-26T16:35:29.541Z,38.40
2022-09-26T16:39:41.432Z,5.40
2022-09-26T16:44:06.573Z,3.78
2022-09-26T16:48:42.510Z,2.80
2022-09-26T16:53:25.769Z,2.88
2022-09-26T16:57:53.361Z,3.55
2022-09-26T17:02:09.627Z,3.15
2022-09-26T17:06:21.173Z,4.00
2022-09-26T17:10:37.373Z,5.03
2022-09-26T17:14:56.479Z,4.50
2022-09-26T17:19:12.101Z,3.70
2022-09-26T17:23:41.150Z,3.47
2022-09-26T17:27:57.918Z,4.30
2022-09-26T17:32:13.905Z,4.07
2022-09-26T17:36:29.589Z,4.32
2022-09-26T17:40:45.531Z,4.57
2022-09-26T17:44:57.141Z,6.15
2022-09-26T17:49:37.104Z,4.72
2022-09-26T17:53:50.911Z,6.35
2022-09-26T17:58:04.979Z,6.70
2022-09-26T18:02:30.016Z,5.72
2022-09-26T18:06:42.885Z,5.50
2022-09-26T18:11:02.704Z,6.50
2022-09-26T18:15:20.937Z,6.63
2022-09-26T18:19:32.389Z,6.25
2022-09-26T18:23:52.126Z,5.82
2022-09-26T18:28:13.292Z,5.47
2022-09-26T18:32:31.652Z,5.63
2022-09-26T18:36:43.199Z,7.30
2022-09-26T18:40:58.030Z,8.63
2022-09-26T18:45:13.983Z,7.47
2022-09-26T18:49:26.167Z,7.93
2022-09-26T18:53:37.886Z,6.30
2022-09-26T18:58:07.994Z,8.18
2022-09-26T19:02:23.036Z,6.90
2022-09-26T19:06:36.893Z,6.82
2022-09-26T19:10:48.411Z,6.90
2022-09-26T19:14:59.945Z,6.75
2022-09-26T19:19:12.166Z,7.10
2022-09-26T19:23:29.083Z,6.47
2022-09-26T19:27:51.996Z,6.78
2022-09-26T19:32:05.215Z,11.23
2022-09-26T19:36:19.060Z,11.10
2022-09-26T19:40:30.696Z,14.38
2022-09-26T19:44:42.385Z,8.98
2022-09-26T19:48:54.168Z,9.15
2022-09-26T19:53:12.671Z,6.97
2022-09-26T19:57:24.168Z,6.82
2022-09-26T20:01:35.717Z,6.97
2022-09-26T20:05:52.082Z,6.82
2022-09-26T20:10:13.870Z,6.65
2022-09-26T20:14:25.569Z,6.55
2022-09-26T20:18:37.198Z,6.10
2022-09-26T20:22:51.015Z,5.00
2022-09-26T20:27:06.916Z,4.93
2022-09-26T20:31:22.675Z,5.35
2022-09-26T20:35:36.944Z,4.20
2022-09-26T20:39:48.527Z,2.72
2022-09-26T20:44:09.141Z,2.43
2022-09-26T20:48:26.953Z,2.08
2022-09-26T20:52:38.970Z,1.90
2022-09-26T20:56:50.595Z,2.17
2022-09-26T21:01:02.150Z,1.60
2022-09-26T21:05:24.378Z,2.42
2022-09-26T21:09:35.858Z,3.28
2022-09-26T21:13:48.144Z,3.20
2022-09-26T21:18:01.177Z,2.10
2022-09-26T21:22:13.025Z,2.40
2022-09-26T21:26:31.113Z,1.70
2022-09-26T21:30:43.472Z,1.40
2022-09-26T21:35:01.762Z,1.50
2022-09-26T21:39:15.590Z,1.40
2022-09-26T21:43:31.228Z,2.13
2022-09-26T21:47:43.177Z,1.98
2022-09-26T21:52:03.228Z,2.35
2022-09-26T21:56:21.835Z,2.17
2022-09-26T22:00:33.399Z,2.00
2022-09-26T22:04:44.971Z,2.20
2022-09-26T22:08:56.557Z,1.80
2022-09-26T22:13:08.084Z,1.60
2022-09-26T22:17:19.693Z,1.70
2022-09-26T22:21:31.696Z,2.05
2022-09-26T22:25:48.902Z,1.70
2022-09-26T22:30:00.459Z,1.70
2022-09-26T22:34:12.045Z,1.40
2022-09-26T22:38:23.600Z,2.27
2022-09-26T22:42:35.196Z,1.83
2022-09-26T22:46:46.886Z,1.83
2022-09-26T22:50:58.753Z,1.70
2022-09-26T22:55:10.397Z,1.80
2022-09-26T22:59:21.974Z,1.57
2022-09-26T23:03:34.292Z,2.00
2022-09-26T23:07:45.921Z,1.63
2022-09-26T23:11:57.550Z,1.83
2022-09-26T23:16:14.369Z,2.10
2022-09-26T23:20:25.962Z,1.87
2022-09-26T23:24:37.581Z,1.87
2022-09-26T23:28:50.665Z,2.07
2022-09-26T23:33:02.361Z,1.97
2022-09-26T23:37:13.934Z,2.10
2022-09-26T23:41:25.696Z,2.00
2022-09-26T23:45:37.281Z,1.93
2022-09-26T23:49:48.897Z,2.20
2022-09-26T23:54:00.507Z,2.00
2022-09-26T23:58:13.544Z,1.40
